Pagina principale
METAR-TAF:

METAR-TAF

Aeroporti :

Aeroporto di Bastia Poretta

Bastia, Francia

latitudine: 42-33N, longitudine: 009-29E, altezza: 8 m

Osservazione

Il bollettino è stato emesso 29 minuti fa, alle 01:30 UTC
Vento 3 kt da sud-ovest
Temperature 16°C
Umidità 88%
Pressione 1016 hPa
Visibilità 10 km o più
Poco nuvoloso ad un'altezza di 4400 ft

METAR: LFKB 280130Z AUTO 22003KT 9999 FEW044 16/14 Q1016 NOSIG

Ora: 03:59 (01:59 UTC)

Previsione

Il bollettino è stato emesso 5 ore e 59 minuti fa, alle 20:00 UTC
Previsione valida dal 27 alle 21 UTC al 28 alle 21 UTC
Vento 4 kt da ovest/sud-ovest
Visibilità 10 km o più
Evoluzione graduale
dal 28 alle 08 UTC al 28 alle 10 UTC
Vento 10 kt da sud-est
Nuvoloso ad un'altezza di 2000 ft

TAF: LFKB 272000Z 2721/2821 24004KT 9999 NSC TX24/2812Z TN16/2804Z BECMG 2808/2810 14010KT BKN020

Osservazioni e previsioni meteorologiche di più di 4000 aeroporti (messaggi METAR e TAF).

Le stazioni disponibili sono rappresentate dai dischi gialli e rossi sulla carta.

Puntare il mouse per vedere il nome della stazione.

Clicca sopra per visualizzare le osservazioni e previsioni meteorologiche.

Per cambiare la mappa : fare clic sui pulsanti verdi con una croce nera per ingrandire, il pulsante verde con un trattino per diminuire, o sulla freccia verde per le mappe adiacenti.


METAR-TAF: